sensor_id;sensor_type;location;lat;lon;timestamp;pressure;altitude;pressure_sealevel;temperature
19568;BMP280;9930;49.240;8.548;2023-03-01T00:01:35;101477.44;;;5.05
19568;BMP280;9930;49.240;8.548;2023-03-01T00:04:01;101488.03;;;5.11
19568;BMP280;9930;49.240;8.548;2023-03-01T00:06:30;101477.31;;;5.03
19568;BMP280;9930;49.240;8.548;2023-03-01T00:08:56;101465.22;;;4.99
19568;BMP280;9930;49.240;8.548;2023-03-01T00:11:24;101485.50;;;5.11
19568;BMP280;9930;49.240;8.548;2023-03-01T00:13:57;101470.84;;;5.07
19568;BMP280;9930;49.240;8.548;2023-03-01T00:18:53;101481.78;;;5.17
19568;BMP280;9930;49.240;8.548;2023-03-01T00:21:23;101483.53;;;5.18
19568;BMP280;9930;49.240;8.548;2023-03-01T00:23:52;101464.38;;;5.10
19568;BMP280;9930;49.240;8.548;2023-03-01T00:26:22;101488.72;;;5.20
19568;BMP280;9930;49.240;8.548;2023-03-01T00:28:50;101477.13;;;5.12
19568;BMP280;9930;49.240;8.548;2023-03-01T00:31:24;101479.25;;;5.17
19568;BMP280;9930;49.240;8.548;2023-03-01T00:33:57;101484.97;;;5.15
19568;BMP280;9930;49.240;8.548;2023-03-01T00:36:28;101469.84;;;5.05
19568;BMP280;9930;49.240;8.548;2023-03-01T00:38:55;101475.56;;;5.02
19568;BMP280;9930;49.240;8.548;2023-03-01T00:41:24;101484.38;;;5.07
19568;BMP280;9930;49.240;8.548;2023-03-01T00:43:58;101476.19;;;5.00
19568;BMP280;9930;49.240;8.548;2023-03-01T00:46:28;101489.84;;;5.02
19568;BMP280;9930;49.240;8.548;2023-03-01T00:48:58;101486.84;;;4.96
19568;BMP280;9930;49.240;8.548;2023-03-01T00:51:26;101475.38;;;4.89
19568;BMP280;9930;49.240;8.548;2023-03-01T00:53:56;101486.59;;;4.93
19568;BMP280;9930;49.240;8.548;2023-03-01T00:56:25;101497.38;;;4.90
19568;BMP280;9930;49.240;8.548;2023-03-01T00:58:50;101498.00;;;4.87
19568;BMP280;9930;49.240;8.548;2023-03-01T01:01:30;101499.41;;;4.84
19568;BMP280;9930;49.240;8.548;2023-03-01T01:04:06;101497.53;;;4.81
19568;BMP280;9930;49.240;8.548;2023-03-01T01:06:37;101498.94;;;4.78
19568;BMP280;9930;49.240;8.548;2023-03-01T01:09:09;101488.00;;;4.67
19568;BMP280;9930;49.240;8.548;2023-03-01T01:11:49;101496.81;;;4.72
19568;BMP280;9930;49.240;8.548;2023-03-01T01:14:16;101494.06;;;4.69
19568;BMP280;9930;49.240;8.548;2023-03-01T01:16:42;101476.78;;;4.64
19568;BMP280;9930;49.240;8.548;2023-03-01T01:19:11;101472.34;;;4.61
19568;BMP280;9930;49.240;8.548;2023-03-01T01:21:39;101481.06;;;4.65
19568;BMP280;9930;49.240;8.548;2023-03-01T01:24:11;101474.34;;;4.65
19568;BMP280;9930;49.240;8.548;2023-03-01T01:26:40;101472.59;;;4.64
19568;BMP280;9930;49.240;8.548;2023-03-01T01:29:09;101449.03;;;4.53
19568;BMP280;9930;49.240;8.548;2023-03-01T01:31:38;101455.44;;;4.60
19568;BMP280;9930;49.240;8.548;2023-03-01T01:34:07;101452.66;;;4.57
19568;BMP280;9930;49.240;8.548;2023-03-01T01:36:34;101450.91;;;4.56
19568;BMP280;9930;49.240;8.548;2023-03-01T01:39:02;101436.66;;;4.46
19568;BMP280;9930;49.240;8.548;2023-03-01T01:41:32;101447.13;;;4.51
19568;BMP280;9930;49.240;8.548;2023-03-01T01:47:07;101444.38;;;4.48
19568;BMP280;9930;49.240;8.548;2023-03-01T01:49:49;101439.06;;;4.45
19568;BMP280;9930;49.240;8.548;2023-03-01T01:52:27;101441.47;;;4.43
19568;BMP280;9930;49.240;8.548;2023-03-01T01:55:18;101427.38;;;4.35
19568;BMP280;9930;49.240;8.548;2023-03-01T01:57:54;101434.31;;;4.38
19568;BMP280;9930;49.240;8.548;2023-03-01T02:00:26;101421.97;;;4.31
19568;BMP280;9930;49.240;8.548;2023-03-01T02:03:08;101423.84;;;4.33
19568;BMP280;9930;49.240;8.548;2023-03-01T02:05:47;101423.72;;;4.32
19568;BMP280;9930;49.240;8.548;2023-03-01T02:08:19;101418.31;;;4.27
19568;BMP280;9930;49.240;8.548;2023-03-01T02:10:47;101414.91;;;4.27
19568;BMP280;9930;49.240;8.548;2023-03-01T02:13:14;101411.91;;;4.20
19568;BMP280;9930;49.240;8.548;2023-03-01T02:15:41;101413.91;;;4.25
19568;BMP280;9930;49.240;8.548;2023-03-01T02:18:14;101402.91;;;4.24
19568;BMP280;9930;49.240;8.548;2023-03-01T02:27:01;101386.81;;;4.12
19568;BMP280;9930;49.240;8.548;2023-03-01T02:29:28;101391.47;;;4.17
19568;BMP280;9930;49.240;8.548;2023-03-01T02:31:58;101395.63;;;4.17
19568;BMP280;9930;49.240;8.548;2023-03-01T02:34:26;101383.91;;;4.07
19568;BMP280;9930;49.240;8.548;2023-03-01T02:37:08;101395.38;;;4.14
19568;BMP280;9930;49.240;8.548;2023-03-01T02:39:48;101389.97;;;4.09
19568;BMP280;9930;49.240;8.548;2023-03-01T02:42:31;101388.22;;;4.08
19568;BMP280;9930;49.240;8.548;2023-03-01T02:45:02;101387.97;;;4.05
19568;BMP280;9930;49.240;8.548;2023-03-01T02:47:28;101392.03;;;4.03
19568;BMP280;9930;49.240;8.548;2023-03-01T02:49:54;101379.91;;;3.99
19568;BMP280;9930;49.240;8.548;2023-03-01T02:52:46;101360.63;;;3.89
19568;BMP280;9930;49.240;8.548;2023-03-01T02:55:18;101367.31;;;3.89
19568;BMP280;9930;49.240;8.548;2023-03-01T02:57:47;101375.25;;;3.94
19568;BMP280;9930;49.240;8.548;2023-03-01T03:00:24;101363.81;;;3.87
19568;BMP280;9930;49.240;8.548;2023-03-01T03:02:54;101373.38;;;3.91
19568;BMP280;9930;49.240;8.548;2023-03-01T03:05:31;101374.13;;;3.90
19568;BMP280;9930;49.240;8.548;2023-03-01T03:08:05;101362.41;;;3.90
19568;BMP280;9930;49.240;8.548;2023-03-01T03:10:40;101361.41;;;3.88
19568;BMP280;9930;49.240;8.548;2023-03-01T03:13:13;101358.13;;;3.89
19568;BMP280;9930;49.240;8.548;2023-03-01T03:15:40;101353.94;;;3.90
19568;BMP280;9930;49.240;8.548;2023-03-01T03:18:11;101349.78;;;3.90
19568;BMP280;9930;49.240;8.548;2023-03-01T03:20:43;101351.66;;;3.93
19568;BMP280;9930;49.240;8.548;2023-03-01T03:23:10;101331.75;;;3.86
19568;BMP280;9930;49.240;8.548;2023-03-01T03:25:35;101352.53;;;3.94
19568;BMP280;9930;49.240;8.548;2023-03-01T03:28:05;101333.16;;;3.82
19568;BMP280;9930;49.240;8.548;2023-03-01T03:30:40;101346.38;;;3.90
19568;BMP280;9930;49.240;8.548;2023-03-01T03:33:10;101350.03;;;3.94
19568;BMP280;9930;49.240;8.548;2023-03-01T03:35:47;101348.13;;;3.91
19568;BMP280;9930;49.240;8.548;2023-03-01T03:38:19;101339.44;;;3.87
19568;BMP280;9930;49.240;8.548;2023-03-01T03:41:04;101348.13;;;3.91
19568;BMP280;9930;49.240;8.548;2023-03-01T03:43:37;101337.56;;;3.85
19568;BMP280;9930;49.240;8.548;2023-03-01T03:46:07;101347.13;;;3.89
19568;BMP280;9930;49.240;8.548;2023-03-01T03:48:44;101333.50;;;3.87
19568;BMP280;9930;49.240;8.548;2023-03-01T03:51:15;101344.84;;;3.92
19568;BMP280;9930;49.240;8.548;2023-03-01T03:53:41;101326.72;;;3.86
19568;BMP280;9930;49.240;8.548;2023-03-01T03:56:11;101333.88;;;3.92
19568;BMP280;9930;49.240;8.548;2023-03-01T03:58:37;101316.63;;;3.86
19568;BMP280;9930;49.240;8.548;2023-03-01T04:01:03;101321.91;;;3.89
19568;BMP280;9930;49.240;8.548;2023-03-01T04:03:35;101320.38;;;3.91
19568;BMP280;9930;49.240;8.548;2023-03-01T04:06:03;101317.63;;;3.88
19568;BMP280;9930;49.240;8.548;2023-03-01T04:08:34;101301.88;;;3.80
19568;BMP280;9930;49.240;8.548;2023-03-01T04:11:05;101315.84;;;3.87
19568;BMP280;9930;49.240;8.548;2023-03-01T04:13:51;101314.84;;;3.85
19568;BMP280;9930;49.240;8.548;2023-03-01T04:16:17;101299.88;;;3.76
19568;BMP280;9930;49.240;8.548;2023-03-01T04:18:44;101301.50;;;3.76
19568;BMP280;9930;49.240;8.548;2023-03-01T04:21:10;101318.00;;;3.82
19568;BMP280;9930;49.240;8.548;2023-03-01T04:23:37;101319.66;;;3.82
19568;BMP280;9930;49.240;8.548;2023-03-01T04:26:04;101309.31;;;3.79
19568;BMP280;9930;49.240;8.548;2023-03-01T04:28:39;101312.38;;;3.75
19568;BMP280;9930;49.240;8.548;2023-03-01T04:31:17;101316.00;;;3.78
19568;BMP280;9930;49.240;8.548;2023-03-01T04:33:55;101310.31;;;3.81
19568;BMP280;9930;49.240;8.548;2023-03-01T04:36:27;101306.78;;;3.79
19568;BMP280;9930;49.240;8.548;2023-03-01T04:38:54;101307.56;;;3.78
19568;BMP280;9930;49.240;8.548;2023-03-01T04:41:23;101302.66;;;3.69
19568;BMP280;9930;49.240;8.548;2023-03-01T04:43:49;101317.41;;;3.75
19568;BMP280;9930;49.240;8.548;2023-03-01T04:46:21;101319.06;;;3.74
19568;BMP280;9930;49.240;8.548;2023-03-01T04:48:47;101317.28;;;3.73
19568;BMP280;9930;49.240;8.548;2023-03-01T04:51:13;101307.59;;;3.68
19568;BMP280;9930;49.240;8.548;2023-03-01T04:53:40;101320.69;;;3.74
19568;BMP280;9930;49.240;8.548;2023-03-01T04:56:06;101324.09;;;3.74
19568;BMP280;9930;49.240;8.548;2023-03-01T04:58:32;101329.13;;;3.74
19568;BMP280;9930;49.240;8.548;2023-03-01T05:01:00;101318.94;;;3.73
19568;BMP280;9930;49.240;8.548;2023-03-01T05:03:36;101315.16;;;3.68
19568;BMP280;9930;49.240;8.548;2023-03-01T05:06:06;101327.13;;;3.70
19568;BMP280;9930;49.240;8.548;2023-03-01T05:08:32;101327.03;;;3.69
19568;BMP280;9930;49.240;8.548;2023-03-01T05:11:00;101315.56;;;3.62
19568;BMP280;9930;49.240;8.548;2023-03-01T05:13:28;101328.28;;;3.64
19568;BMP280;9930;49.240;8.548;2023-03-01T05:16:03;101326.41;;;3.61
19568;BMP280;9930;49.240;8.548;2023-03-01T05:18:31;101326.81;;;3.55
19568;BMP280;9930;49.240;8.548;2023-03-01T05:21:10;101313.56;;;3.48
19568;BMP280;9930;49.240;8.548;2023-03-01T05:23:37;101325.78;;;3.53
19568;BMP280;9930;49.240;8.548;2023-03-01T05:26:06;101319.75;;;3.51
19568;BMP280;9930;49.240;8.548;2023-03-01T05:28:37;101312.44;;;3.44
19568;BMP280;9930;49.240;8.548;2023-03-01T05:31:07;101325.31;;;3.47
19568;BMP280;9930;49.240;8.548;2023-03-01T05:33:39;101329.22;;;3.44
19568;BMP280;9930;49.240;8.548;2023-03-01T05:36:08;101325.06;;;3.44
19568;BMP280;9930;49.240;8.548;2023-03-01T05:38:35;101330.97;;;3.45
19568;BMP280;9930;49.240;8.548;2023-03-01T05:41:04;101325.94;;;3.45
19568;BMP280;9930;49.240;8.548;2023-03-01T05:43:36;101320.91;;;3.45
19568;BMP280;9930;49.240;8.548;2023-03-01T05:46:02;101327.47;;;3.43
19568;BMP280;9930;49.240;8.548;2023-03-01T05:48:28;101323.28;;;3.43
19568;BMP280;9930;49.240;8.548;2023-03-01T05:50:54;101329.97;;;3.43
19568;BMP280;9930;49.240;8.548;2023-03-01T05:53:20;101325.69;;;3.42
19568;BMP280;9930;49.240;8.548;2023-03-01T05:55:46;101332.38;;;3.41
19568;BMP280;9930;49.240;8.548;2023-03-01T05:58:19;101326.31;;;3.39
19568;BMP280;9930;49.240;8.548;2023-03-01T06:00:47;101318.00;;;3.40
19568;BMP280;9930;49.240;8.548;2023-03-01T06:03:17;101318.88;;;3.41
19568;BMP280;9930;49.240;8.548;2023-03-01T06:05:43;101316.25;;;3.39
19568;BMP280;9930;49.240;8.548;2023-03-01T06:08:12;101304.66;;;3.31
19568;BMP280;9930;49.240;8.548;2023-03-01T06:10:39;101322.94;;;3.39
19568;BMP280;9930;49.240;8.548;2023-03-01T06:13:05;101321.03;;;3.36
19568;BMP280;9930;49.240;8.548;2023-03-01T06:15:33;101318.41;;;3.35
19568;BMP280;9930;49.240;8.548;2023-03-01T06:17:59;101319.28;;;3.35
19568;BMP280;9930;49.240;8.548;2023-03-01T06:20:27;101318.16;;;3.32
19568;BMP280;9930;49.240;8.548;2023-03-01T06:22:53;101322.44;;;3.33
19568;BMP280;9930;49.240;8.548;2023-03-01T06:25:23;101310.09;;;3.25
19568;BMP280;9930;49.240;8.548;2023-03-01T06:27:49;101318.16;;;3.32
19568;BMP280;9930;49.240;8.548;2023-03-01T06:30:18;101313.50;;;3.26
19568;BMP280;9930;49.240;8.548;2023-03-01T06:32:44;101322.56;;;3.34
19568;BMP280;9930;49.240;8.548;2023-03-01T06:35:14;101320.91;;;3.35
19568;BMP280;9930;49.240;8.548;2023-03-01T06:37:41;101317.63;;;3.36
19568;BMP280;9930;49.240;8.548;2023-03-01T06:40:10;101319.53;;;3.38
19568;BMP280;9930;49.240;8.548;2023-03-01T06:42:40;101319.66;;;3.40
19568;BMP280;9930;49.240;8.548;2023-03-01T06:45:11;101320.66;;;3.42
19568;BMP280;9930;49.240;8.548;2023-03-01T06:47:37;101301.75;;;3.37
19568;BMP280;9930;49.240;8.548;2023-03-01T06:50:03;101318.38;;;3.45
19568;BMP280;9930;49.240;8.548;2023-03-01T06:52:38;101316.09;;;3.48
19568;BMP280;9930;49.240;8.548;2023-03-01T06:55:05;101311.06;;;3.48
19568;BMP280;9930;49.240;8.548;2023-03-01T06:57:35;101312.06;;;3.50
19568;BMP280;9930;49.240;8.548;2023-03-01T07:00:04;101313.19;;;3.53
19568;BMP280;9930;49.240;8.548;2023-03-01T07:02:33;101298.56;;;3.49
19568;BMP280;9930;49.240;8.548;2023-03-01T07:05:01;101291.25;;;3.52
19568;BMP280;9930;49.240;8.548;2023-03-01T07:07:28;101302.69;;;3.59
19568;BMP280;9930;49.240;8.548;2023-03-01T07:09:56;101302.31;;;3.65
19568;BMP280;9930;49.240;8.548;2023-03-01T07:12:24;101308.59;;;3.70
19568;BMP280;9930;49.240;8.548;2023-03-01T07:14:50;101295.84;;;3.68
19568;BMP280;9930;49.240;8.548;2023-03-01T07:17:16;101295.34;;;3.72
19568;BMP280;9930;49.240;8.548;2023-03-01T07:19:44;101305.41;;;3.82
19568;BMP280;9930;49.240;8.548;2023-03-01T07:22:10;101300.59;;;3.85
19568;BMP280;9930;49.240;8.548;2023-03-01T07:24:41;101298.53;;;3.92
19568;BMP280;9930;49.240;8.548;2023-03-01T07:27:07;101287.94;;;3.96
19568;BMP280;9930;49.240;8.548;2023-03-01T07:29:32;101282.59;;;4.03
19568;BMP280;9930;49.240;8.548;2023-03-01T07:32:00;101293.16;;;4.09
19568;BMP280;9930;49.240;8.548;2023-03-01T07:34:26;101272.97;;;4.09
19568;BMP280;9930;49.240;8.548;2023-03-01T07:36:52;101284.13;;;4.22
19568;BMP280;9930;49.240;8.548;2023-03-01T07:39:18;101275.25;;;4.28
19568;BMP280;9930;49.240;8.548;2023-03-01T07:41:44;101278.38;;;4.35
19568;BMP280;9930;49.240;8.548;2023-03-01T07:44:10;101279.72;;;4.42
19568;BMP280;9930;49.240;8.548;2023-03-01T07:46:36;101273.13;;;4.44
19568;BMP280;9930;49.240;8.548;2023-03-01T07:49:02;101276.22;;;4.51
19568;BMP280;9930;49.240;8.548;2023-03-01T07:51:28;101264.72;;;4.55
19568;BMP280;9930;49.240;8.548;2023-03-01T07:53:54;101271.09;;;4.62
19568;BMP280;9930;49.240;8.548;2023-03-01T07:56:20;101280.03;;;4.68
19568;BMP280;9930;49.240;8.548;2023-03-01T07:58:49;101260.56;;;4.67
19568;BMP280;9930;49.240;8.548;2023-03-01T08:01:18;101274.13;;;4.79
19568;BMP280;9930;49.240;8.548;2023-03-01T08:03:45;101274.56;;;4.85
19568;BMP280;9930;49.240;8.548;2023-03-01T08:06:13;101268.75;;;4.86
19568;BMP280;9930;49.240;8.548;2023-03-01T08:08:40;101280.53;;;4.98
19568;BMP280;9930;49.240;8.548;2023-03-01T08:11:10;101255.38;;;4.99
19568;BMP280;9930;49.240;8.548;2023-03-01T08:13:39;101265.25;;;5.08
19568;BMP280;9930;49.240;8.548;2023-03-01T08:16:11;101261.53;;;5.14
19568;BMP280;9930;49.240;8.548;2023-03-01T08:18:38;101273.50;;;5.29
19568;BMP280;9930;49.240;8.548;2023-03-01T08:21:16;101269.09;;;5.38
19568;BMP280;9930;49.240;8.548;2023-03-01T08:23:43;101270.53;;;5.46
19568;BMP280;9930;49.240;8.548;2023-03-01T08:26:12;101266.91;;;5.54
19568;BMP280;9930;49.240;8.548;2023-03-01T08:28:39;101264.03;;;5.61
19568;BMP280;9930;49.240;8.548;2023-03-01T08:31:34;101252.25;;;5.62
19568;BMP280;9930;49.240;8.548;2023-03-01T08:34:08;101248.81;;;5.73
19568;BMP280;9930;49.240;8.548;2023-03-01T08:36:41;101253.53;;;5.80
19568;BMP280;9930;49.240;8.548;2023-03-01T08:39:13;101247.38;;;5.88
19568;BMP280;9930;49.240;8.548;2023-03-01T08:41:40;101242.75;;;5.94
19568;BMP280;9930;49.240;8.548;2023-03-01T08:44:11;101260.03;;;6.00
19568;BMP280;9930;49.240;8.548;2023-03-01T08:46:40;101242.19;;;5.98
19568;BMP280;9930;49.240;8.548;2023-03-01T08:49:19;101246.34;;;6.09
19568;BMP280;9930;49.240;8.548;2023-03-01T08:51:50;101243.34;;;6.15
19568;BMP280;9930;49.240;8.548;2023-03-01T08:54:22;101241.34;;;6.23
19568;BMP280;9930;49.240;8.548;2023-03-01T08:56:48;101233.38;;;6.30
19568;BMP280;9930;49.240;8.548;2023-03-01T08:59:18;101239.94;;;6.39
19568;BMP280;9930;49.240;8.548;2023-03-01T09:01:44;101239.59;;;6.46
19568;BMP280;9930;49.240;8.548;2023-03-01T09:04:14;101232.59;;;6.56
19568;BMP280;9930;49.240;8.548;2023-03-01T09:06:40;101236.22;;;6.59
19568;BMP280;9930;49.240;8.548;2023-03-01T09:09:13;101230.78;;;6.66
19568;BMP280;9930;49.240;8.548;2023-03-01T09:11:40;101227.56;;;6.69
19568;BMP280;9930;49.240;8.548;2023-03-01T09:14:06;101226.31;;;6.75
19568;BMP280;9930;49.240;8.548;2023-03-01T09:16:32;101225.81;;;6.81
19568;BMP280;9930;49.240;8.548;2023-03-01T09:19:03;101219.41;;;6.86
19568;BMP280;9930;49.240;8.548;2023-03-01T09:21:32;101222.34;;;6.92
19568;BMP280;9930;49.240;8.548;2023-03-01T09:24:01;101202.03;;;6.92
19568;BMP280;9930;49.240;8.548;2023-03-01T09:26:30;101211.22;;;7.03
19568;BMP280;9930;49.240;8.548;2023-03-01T09:28:56;101214.56;;;7.15
19568;BMP280;9930;49.240;8.548;2023-03-01T09:31:24;101217.38;;;7.20
19568;BMP280;9930;49.240;8.548;2023-03-01T09:33:53;101218.66;;;7.27
19568;BMP280;9930;49.240;8.548;2023-03-01T09:36:23;101214.75;;;7.32
19568;BMP280;9930;49.240;8.548;2023-03-01T09:38:51;101212.59;;;7.38
19568;BMP280;9930;49.240;8.548;2023-03-01T09:47:03;101208.47;;;7.53
19568;BMP280;9930;49.240;8.548;2023-03-01T09:49:42;101206.22;;;7.58
19568;BMP280;9930;49.240;8.548;2023-03-01T09:52:36;101197.13;;;7.61
19568;BMP280;9930;49.240;8.548;2023-03-01T09:55:14;101191.75;;;7.70
19568;BMP280;9930;49.240;8.548;2023-03-01T09:57:54;101193.00;;;7.76
19568;BMP280;9930;49.240;8.548;2023-03-01T10:00:43;101188.19;;;7.81
19568;BMP280;9930;49.240;8.548;2023-03-01T10:03:17;101194.44;;;7.86
19568;BMP280;9930;49.240;8.548;2023-03-01T10:06:06;101188.84;;;7.92
19568;BMP280;9930;49.240;8.548;2023-03-01T10:11:21;101181.00;;;8.02
19568;BMP280;9930;49.240;8.548;2023-03-01T10:14:35;101170.13;;;8.04
19568;BMP280;9930;49.240;8.548;2023-03-01T10:20:36;101181.38;;;8.23
19568;BMP280;9930;49.240;8.548;2023-03-01T10:23:10;101166.41;;;8.27
19568;BMP280;9930;49.240;8.548;2023-03-01T10:28:30;101155.56;;;8.30
19568;BMP280;9930;49.240;8.548;2023-03-01T10:31:01;101146.03;;;8.40
19568;BMP280;9930;49.240;8.548;2023-03-01T10:33:32;101134.66;;;8.49
19568;BMP280;9930;49.240;8.548;2023-03-01T10:36:03;101150.50;;;8.59
19568;BMP280;9930;49.240;8.548;2023-03-01T10:41:14;101137.25;;;8.80
19568;BMP280;9930;49.240;8.548;2023-03-01T10:43:48;101146.91;;;8.85
19568;BMP280;9930;49.240;8.548;2023-03-01T10:49:22;101127.22;;;8.97
19568;BMP280;9930;49.240;8.548;2023-03-01T10:51:51;101124.78;;;8.99
19568;BMP280;9930;49.240;8.548;2023-03-01T10:54:27;101126.41;;;9.13
19568;BMP280;9930;49.240;8.548;2023-03-01T10:57:04;101113.84;;;9.16
19568;BMP280;9930;49.240;8.548;2023-03-01T10:59:34;101109.88;;;9.21
19568;BMP280;9930;49.240;8.548;2023-03-01T11:02:26;101106.78;;;9.27
19568;BMP280;9930;49.240;8.548;2023-03-01T11:05:20;101097.97;;;9.36
19568;BMP280;9930;49.240;8.548;2023-03-01T11:07:59;101092.34;;;9.42
19568;BMP280;9930;49.240;8.548;2023-03-01T11:13:15;101080.66;;;9.62
19568;BMP280;9930;49.240;8.548;2023-03-01T11:15:43;101078.50;;;9.69
19568;BMP280;9930;49.240;8.548;2023-03-01T11:18:22;101069.41;;;9.74
19568;BMP280;9930;49.240;8.548;2023-03-01T11:20:55;101074.03;;;9.82
19568;BMP280;9930;49.240;8.548;2023-03-01T11:23:22;101079.34;;;9.86
19568;BMP280;9930;49.240;8.548;2023-03-01T11:26:00;101069.47;;;9.92
19568;BMP280;9930;49.240;8.548;2023-03-01T11:28:34;101077.50;;;10.00
19568;BMP280;9930;49.240;8.548;2023-03-01T11:31:05;101064.91;;;10.03
19568;BMP280;9930;49.240;8.548;2023-03-01T11:33:54;101058.22;;;10.05
19568;BMP280;9930;49.240;8.548;2023-03-01T11:36:53;101055.81;;;10.08
19568;BMP280;9930;49.240;8.548;2023-03-01T11:39:47;101049.22;;;10.12
19568;BMP280;9930;49.240;8.548;2023-03-01T11:42:30;101048.63;;;10.17
19568;BMP280;9930;49.240;8.548;2023-03-01T11:45:12;101050.50;;;10.20
19568;BMP280;9930;49.240;8.548;2023-03-01T11:47:54;101036.22;;;10.23
19568;BMP280;9930;49.240;8.548;2023-03-01T11:50:44;101028.88;;;10.29
19568;BMP280;9930;49.240;8.548;2023-03-01T11:53:48;101020.56;;;10.33
19568;BMP280;9930;49.240;8.548;2023-03-01T11:56:29;101026.00;;;10.41
19568;BMP280;9930;49.240;8.548;2023-03-01T12:05:08;100998.03;;;10.43
19568;BMP280;9930;49.240;8.548;2023-03-01T12:17:11;100975.06;;;10.60
19568;BMP280;9930;49.240;8.548;2023-03-01T12:20:14;100980.38;;;10.65
19568;BMP280;9930;49.240;8.548;2023-03-01T12:28:49;100958.09;;;10.80
19568;BMP280;9930;49.240;8.548;2023-03-01T12:34:57;100964.63;;;10.93
19568;BMP280;9930;49.240;8.548;2023-03-01T12:40:50;100939.53;;;11.02
19568;BMP280;9930;49.240;8.548;2023-03-01T12:49:11;100928.16;;;11.15
19568;BMP280;9930;49.240;8.548;2023-03-01T12:51:40;100926.63;;;11.18
19568;BMP280;9930;49.240;8.548;2023-03-01T12:54:28;100920.72;;;11.19
19568;BMP280;9930;49.240;8.548;2023-03-01T12:59:58;100910.97;;;11.30
19568;BMP280;9930;49.240;8.548;2023-03-01T13:02:48;100906.91;;;11.35
19568;BMP280;9930;49.240;8.548;2023-03-01T13:08:11;100907.38;;;11.46
19568;BMP280;9930;49.240;8.548;2023-03-01T13:10:56;100881.63;;;11.41
19568;BMP280;9930;49.240;8.548;2023-03-01T13:13:28;100880.06;;;11.45
19568;BMP280;9930;49.240;8.548;2023-03-01T13:18:49;100878.03;;;11.57
19568;BMP280;9930;49.240;8.548;2023-03-01T13:21:31;100881.63;;;11.62
19568;BMP280;9930;49.240;8.548;2023-03-01T13:24:22;100872.28;;;11.62
19568;BMP280;9930;49.240;8.548;2023-03-01T13:29:52;100869.13;;;11.68
19568;BMP280;9930;49.240;8.548;2023-03-01T13:32:36;100866.69;;;11.71
19568;BMP280;9930;49.240;8.548;2023-03-01T13:35:44;100860.75;;;11.72
19568;BMP280;9930;49.240;8.548;2023-03-01T13:41:04;100845.53;;;11.75
19568;BMP280;9930;49.240;8.548;2023-03-01T13:43:37;100852.63;;;11.81
19568;BMP280;9930;49.240;8.548;2023-03-01T13:46:25;100860.34;;;11.82
19568;BMP280;9930;49.240;8.548;2023-03-01T13:48:56;100848.44;;;11.83
19568;BMP280;9930;49.240;8.548;2023-03-01T13:51:27;100846.81;;;11.85
19568;BMP280;9930;49.240;8.548;2023-03-01T13:53:57;100850.38;;;11.88
19568;BMP280;9930;49.240;8.548;2023-03-01T13:56:28;100846.25;;;11.92
19568;BMP280;9930;49.240;8.548;2023-03-01T13:59:20;100849.72;;;11.94
19568;BMP280;9930;49.240;8.548;2023-03-01T14:02:13;100843.75;;;11.93
19568;BMP280;9930;49.240;8.548;2023-03-01T14:04:39;100842.00;;;11.92
19568;BMP280;9930;49.240;8.548;2023-03-01T14:07:27;100830.72;;;11.87
19568;BMP280;9930;49.240;8.548;2023-03-01T14:10:04;100824.13;;;11.92
19568;BMP280;9930;49.240;8.548;2023-03-01T14:13:02;100828.41;;;11.93
19568;BMP280;9930;49.240;8.548;2023-03-01T14:15:42;100827.53;;;11.93
19568;BMP280;9930;49.240;8.548;2023-03-01T14:18:25;100822.53;;;11.96
19568;BMP280;9930;49.240;8.548;2023-03-01T14:20:57;100833.69;;;11.98
19568;BMP280;9930;49.240;8.548;2023-03-01T14:23:24;100821.72;;;11.97
19568;BMP280;9930;49.240;8.548;2023-03-01T14:25:56;100822.59;;;11.97
19568;BMP280;9930;49.240;8.548;2023-03-01T14:28:31;100804.34;;;11.88
19568;BMP280;9930;49.240;8.548;2023-03-01T14:31:02;100825.22;;;11.99
19568;BMP280;9930;49.240;8.548;2023-03-01T14:33:35;100821.84;;;12.00
19568;BMP280;9930;49.240;8.548;2023-03-01T14:36:12;100822.72;;;12.00
19568;BMP280;9930;49.240;8.548;2023-03-01T14:38:41;100827.03;;;12.02
19568;BMP280;9930;49.240;8.548;2023-03-01T14:41:23;100826.25;;;12.04
19568;BMP280;9930;49.240;8.548;2023-03-01T14:43:58;100821.09;;;12.03
19568;BMP280;9930;49.240;8.548;2023-03-01T14:46:39;100817.50;;;11.97
19568;BMP280;9930;49.240;8.548;2023-03-01T14:49:41;100816.69;;;11.98
19568;BMP280;9930;49.240;8.548;2023-03-01T14:52:21;100811.63;;;12.00
19568;BMP280;9930;49.240;8.548;2023-03-01T14:54:51;100814.19;;;12.00
19568;BMP280;9930;49.240;8.548;2023-03-01T14:57:25;100819.28;;;12.00
19568;BMP280;9930;49.240;8.548;2023-03-01T14:59:58;100804.81;;;12.00
19568;BMP280;9930;49.240;8.548;2023-03-01T15:02:28;100809.00;;;11.98
19568;BMP280;9930;49.240;8.548;2023-03-01T15:04:58;100811.63;;;12.00
19568;BMP280;9930;49.240;8.548;2023-03-01T15:07:38;100814.06;;;11.97
19568;BMP280;9930;49.240;8.548;2023-03-01T15:10:14;100814.81;;;11.94
19568;BMP280;9930;49.240;8.548;2023-03-01T15:12:41;100825.22;;;11.99
19568;BMP280;9930;49.240;8.548;2023-03-01T15:18:02;100841.38;;;11.98
19568;BMP280;9930;49.240;8.548;2023-03-01T15:20:30;100843.13;;;11.99
19568;BMP280;9930;49.240;8.548;2023-03-01T15:23:02;100849.09;;;11.99
19568;BMP280;9930;49.240;8.548;2023-03-01T15:25:33;100858.50;;;12.00
19568;BMP280;9930;49.240;8.548;2023-03-01T15:28:01;100862.81;;;12.02
19568;BMP280;9930;49.240;8.548;2023-03-01T15:30:37;100861.06;;;12.00
19568;BMP280;9930;49.240;8.548;2023-03-01T15:35:55;100869.44;;;11.96
19568;BMP280;9930;49.240;8.548;2023-03-01T15:38:35;100865.06;;;11.94
19568;BMP280;9930;49.240;8.548;2023-03-01T15:41:28;100867.44;;;11.89
19568;BMP280;9930;49.240;8.548;2023-03-01T15:43:58;100862.09;;;11.83
19568;BMP280;9930;49.240;8.548;2023-03-01T15:46:35;100863.03;;;11.85
19568;BMP280;9930;49.240;8.548;2023-03-01T15:51:57;100873.13;;;11.82
19568;BMP280;9930;49.240;8.548;2023-03-01T15:54:26;100866.16;;;11.78
19568;BMP280;9930;49.240;8.548;2023-03-01T15:56:55;100869.31;;;11.73
19568;BMP280;9930;49.240;8.548;2023-03-01T15:59:22;100864.94;;;11.70
19568;BMP280;9930;49.240;8.548;2023-03-01T16:01:48;100858.88;;;11.68
19568;BMP280;9930;49.240;8.548;2023-03-01T16:04:18;100875.16;;;11.70
19568;BMP280;9930;49.240;8.548;2023-03-01T16:06:52;100881.94;;;11.69
19568;BMP280;9930;49.240;8.548;2023-03-01T16:09:27;100852.59;;;11.60
19568;BMP280;9930;49.240;8.548;2023-03-01T16:11:54;100862.13;;;11.64
19568;BMP280;9930;49.240;8.548;2023-03-01T16:14:20;100861.19;;;11.62
19568;BMP280;9930;49.240;8.548;2023-03-01T16:16:47;100848.06;;;11.53
19568;BMP280;9930;49.240;8.548;2023-03-01T16:19:18;100856.47;;;11.50
19568;BMP280;9930;49.240;8.548;2023-03-01T16:21:46;100857.41;;;11.52